sensor_id;sensor_type;location;lat;lon;timestamp;pressure;altitude;pressure_sealevel;temperature;humidity
60373;BME280;46216;52.220;5.134;2023-04-04T00:01:07;103235.84;;;2.71;100.00
60373;BME280;46216;52.220;5.134;2023-04-04T00:03:33;103233.22;;;2.71;100.00
60373;BME280;46216;52.220;5.134;2023-04-04T00:05:58;103225.31;;;2.68;100.00
60373;BME280;46216;52.220;5.134;2023-04-04T00:08:23;103218.28;;;2.68;100.00
60373;BME280;46216;52.220;5.134;2023-04-04T00:10:49;103216.56;;;2.67;100.00
60373;BME280;46216;52.220;5.134;2023-04-04T00:13:16;103216.56;;;2.67;100.00
60373;BME280;46216;52.220;5.134;2023-04-04T00:15:41;103216.56;;;2.67;100.00
60373;BME280;46216;52.220;5.134;2023-04-04T00:18:07;103212.19;;;2.66;100.00
60373;BME280;46216;52.220;5.134;2023-04-04T00:20:32;103212.16;;;2.65;100.00
60373;BME280;46216;52.220;5.134;2023-04-04T00:22:57;103207.81;;;2.62;100.00
60373;BME280;46216;52.220;5.134;2023-04-04T00:25:23;103209.53;;;2.63;100.00
60373;BME280;46216;52.220;5.134;2023-04-04T00:27:49;103209.53;;;2.63;100.00
60373;BME280;46216;52.220;5.134;2023-04-04T00:30:14;103199.88;;;2.64;100.00
60373;BME280;46216;52.220;5.134;2023-04-04T00:32:39;103192.88;;;2.63;100.00
60373;BME280;46216;52.220;5.134;2023-04-04T00:35:05;103191.13;;;2.60;100.00
60373;BME280;46216;52.220;5.134;2023-04-04T00:37:31;103194.63;;;2.60;100.00
60373;BME280;46216;52.220;5.134;2023-04-04T00:39:56;103199.88;;;2.60;100.00
60373;BME280;46216;52.220;5.134;2023-04-04T00:42:22;103198.16;;;2.55;100.00
60373;BME280;46216;52.220;5.134;2023-04-04T00:44:47;103205.16;;;2.56;100.00
60373;BME280;46216;52.220;5.134;2023-04-04T00:47:13;103209.56;;;2.52;100.00
60373;BME280;46216;52.220;5.134;2023-04-04T00:49:38;103202.53;;;2.47;100.00
60373;BME280;46216;52.220;5.134;2023-04-04T00:52:04;103200.78;;;2.46;100.00
60373;BME280;46216;52.220;5.134;2023-04-04T00:54:31;103205.19;;;2.42;100.00
60373;BME280;46216;52.220;5.134;2023-04-04T00:56:57;103199.06;;;2.39;100.00
60373;BME280;46216;52.220;5.134;2023-04-04T00:59:25;103192.91;;;2.35;100.00
60373;BME280;46216;52.220;5.134;2023-04-04T01:01:52;103193.78;;;2.35;100.00
60373;BME280;46216;52.220;5.134;2023-04-04T01:04:17;103195.53;;;2.32;100.00
60373;BME280;46216;52.220;5.134;2023-04-04T01:06:43;103189.41;;;2.34;100.00
60373;BME280;46216;52.220;5.134;2023-04-04T01:09:10;103189.38;;;2.33;100.00
60373;BME280;46216;52.220;5.134;2023-04-04T01:11:37;103195.53;;;2.32;100.00
60373;BME280;46216;52.220;5.134;2023-04-04T01:14:02;103193.75;;;2.31;100.00
60373;BME280;46216;52.220;5.134;2023-04-04T01:16:27;103192.91;;;2.30;100.00
60373;BME280;46216;52.220;5.134;2023-04-04T01:18:53;103190.28;;;2.29;100.00
60373;BME280;46216;52.220;5.134;2023-04-04T01:21:21;103184.13;;;2.25;100.00
60373;BME280;46216;52.220;5.134;2023-04-04T01:24:01;103188.50;;;2.23;100.00
60373;BME280;46216;52.220;5.134;2023-04-04T01:26:28;103191.16;;;2.20;100.00
60373;BME280;46216;52.220;5.134;2023-04-04T01:28:54;103201.66;;;2.20;100.00
60373;BME280;46216;52.220;5.134;2023-04-04T01:31:34;103201.69;;;2.25;100.00
60373;BME280;46216;52.220;5.134;2023-04-04T01:34:12;103199.03;;;2.26;100.00
60373;BME280;46216;52.220;5.134;2023-04-04T01:36:50;103201.69;;;2.25;100.00
60373;BME280;46216;52.220;5.134;2023-04-04T01:39:27;103213.97;;;2.24;100.00
60373;BME280;46216;52.220;5.134;2023-04-04T01:41:56;103211.34;;;2.24;100.00
60373;BME280;46216;52.220;5.134;2023-04-04T01:44:23;103216.59;;;2.26;100.00
60373;BME280;46216;52.220;5.134;2023-04-04T01:46:55;103207.81;;;2.25;100.00
60373;BME280;46216;52.220;5.134;2023-04-04T01:49:21;103201.69;;;2.28;100.00
60373;BME280;46216;52.220;5.134;2023-04-04T01:51:47;103199.06;;;2.28;100.00
60373;BME280;46216;52.220;5.134;2023-04-04T01:54:13;103194.66;;;2.24;100.00
60373;BME280;46216;52.220;5.134;2023-04-04T01:56:39;103194.66;;;2.22;100.00
60373;BME280;46216;52.220;5.134;2023-04-04T01:59:04;103194.66;;;2.25;100.00
60373;BME280;46216;52.220;5.134;2023-04-04T02:01:29;103198.19;;;2.24;100.00
60373;BME280;46216;52.220;5.134;2023-04-04T02:03:57;103199.94;;;2.22;100.00
60373;BME280;46216;52.220;5.134;2023-04-04T02:06:22;103202.53;;;2.24;100.00
60373;BME280;46216;52.220;5.134;2023-04-04T02:08:48;103200.81;;;2.21;100.00
60373;BME280;46216;52.220;5.134;2023-04-04T02:11:13;103200.81;;;2.18;100.00
60373;BME280;46216;52.220;5.134;2023-04-04T02:13:39;103206.06;;;2.15;100.00
60373;BME280;46216;52.220;5.134;2023-04-04T02:16:08;103204.31;;;2.12;100.00
60373;BME280;46216;52.220;5.134;2023-04-04T02:18:34;103215.69;;;2.10;100.00
60373;BME280;46216;52.220;5.134;2023-04-04T02:21:01;103201.69;;;2.08;100.00
60373;BME280;46216;52.220;5.134;2023-04-04T02:23:26;103204.28;;;2.03;100.00
60373;BME280;46216;52.220;5.134;2023-04-04T02:25:51;103212.19;;;2.05;100.00
60373;BME280;46216;52.220;5.134;2023-04-04T02:28:17;103212.19;;;2.03;100.00
60373;BME280;46216;52.220;5.134;2023-04-04T02:30:43;103211.28;;;2.00;100.00
60373;BME280;46216;52.220;5.134;2023-04-04T02:33:08;103204.28;;;1.99;100.00
60373;BME280;46216;52.220;5.134;2023-04-04T02:35:34;103200.78;;;1.97;100.00
60373;BME280;46216;52.220;5.134;2023-04-04T02:37:59;103202.53;;;1.92;100.00
60373;BME280;46216;52.220;5.134;2023-04-04T02:40:24;103200.78;;;1.91;100.00
60373;BME280;46216;52.220;5.134;2023-04-04T02:42:50;103190.28;;;1.91;100.00
60373;BME280;46216;52.220;5.134;2023-04-04T02:45:16;103191.13;;;1.88;100.00
60373;BME280;46216;52.220;5.134;2023-04-04T02:47:41;103187.63;;;1.86;100.00
60373;BME280;46216;52.220;5.134;2023-04-04T02:50:08;103187.59;;;1.83;100.00
60373;BME280;46216;52.220;5.134;2023-04-04T02:52:34;103177.97;;;1.83;100.00
60373;BME280;46216;52.220;5.134;2023-04-04T02:54:59;103175.34;;;1.82;100.00
60373;BME280;46216;52.220;5.134;2023-04-04T02:57:24;103178.00;;;1.80;100.00
60373;BME280;46216;52.220;5.134;2023-04-04T02:59:50;103178.84;;;1.81;100.00
60373;BME280;46216;52.220;5.134;2023-04-04T03:02:15;103170.97;;;1.75;100.00
60373;BME280;46216;52.220;5.134;2023-04-04T03:04:40;103176.22;;;1.78;100.00
60373;BME280;46216;52.220;5.134;2023-04-04T03:07:06;103175.31;;;1.76;100.00
60373;BME280;46216;52.220;5.134;2023-04-04T03:09:31;103177.09;;;1.74;100.00
60373;BME280;46216;52.220;5.134;2023-04-04T03:11:56;103183.22;;;1.71;100.00
60373;BME280;46216;52.220;5.134;2023-04-04T03:14:22;103176.22;;;1.70;100.00
60373;BME280;46216;52.220;5.134;2023-04-04T03:16:48;103173.56;;;1.69;100.00
60373;BME280;46216;52.220;5.134;2023-04-04T03:19:16;103179.69;;;1.69;100.00
60373;BME280;46216;52.220;5.134;2023-04-04T03:21:41;103177.94;;;1.68;100.00
60373;BME280;46216;52.220;5.134;2023-04-04T03:24:07;103177.97;;;1.67;100.00
60373;BME280;46216;52.220;5.134;2023-04-04T03:26:32;103168.28;;;1.62;100.00
60373;BME280;46216;52.220;5.134;2023-04-04T03:28:58;103172.66;;;1.59;100.00
60373;BME280;46216;52.220;5.134;2023-04-04T03:31:23;103178.78;;;1.59;100.00
60373;BME280;46216;52.220;5.134;2023-04-04T03:33:48;103176.19;;;1.53;100.00
60373;BME280;46216;52.220;5.134;2023-04-04T03:36:14;103175.28;;;1.51;100.00
60373;BME280;46216;52.220;5.134;2023-04-04T03:38:40;103170.88;;;1.46;100.00
60373;BME280;46216;52.220;5.134;2023-04-04T03:41:06;103170.88;;;1.49;100.00
60373;BME280;46216;52.220;5.134;2023-04-04T03:43:32;103170.88;;;1.46;100.00
60373;BME280;46216;52.220;5.134;2023-04-04T03:46:01;103177.91;;;1.47;100.00
60373;BME280;46216;52.220;5.134;2023-04-04T03:48:27;103176.16;;;1.47;100.00
60373;BME280;46216;52.220;5.134;2023-04-04T03:50:52;103184.03;;;1.46;100.00
60373;BME280;46216;52.220;5.134;2023-04-04T03:53:18;103179.66;;;1.43;100.00
60373;BME280;46216;52.220;5.134;2023-04-04T03:55:43;103180.50;;;1.42;100.00
60373;BME280;46216;52.220;5.134;2023-04-04T03:58:09;103176.16;;;1.39;100.00
60373;BME280;46216;52.220;5.134;2023-04-04T04:00:34;103180.50;;;1.37;100.00
60373;BME280;46216;52.220;5.134;2023-04-04T04:02:59;103176.97;;;1.35;100.00
60373;BME280;46216;52.220;5.134;2023-04-04T04:05:25;103177.84;;;1.31;100.00
60373;BME280;46216;52.220;5.134;2023-04-04T04:07:50;103181.31;;;1.26;100.00
60373;BME280;46216;52.220;5.134;2023-04-04T04:10:17;103183.97;;;1.23;100.00
60373;BME280;46216;52.220;5.134;2023-04-04T04:12:42;103182.19;;;1.18;100.00
60373;BME280;46216;52.220;5.134;2023-04-04T04:15:08;103182.16;;;1.11;100.00
60373;BME280;46216;52.220;5.134;2023-04-04T04:17:34;103190.03;;;1.11;100.00
60373;BME280;46216;52.220;5.134;2023-04-04T04:20:02;103190.00;;;1.08;100.00
60373;BME280;46216;52.220;5.134;2023-04-04T04:22:28;103190.00;;;1.05;100.00
60373;BME280;46216;52.220;5.134;2023-04-04T04:24:54;103189.09;;;1.01;100.00
60373;BME280;46216;52.220;5.134;2023-04-04T04:27:19;103189.09;;;0.97;100.00
60373;BME280;46216;52.220;5.134;2023-04-04T04:29:44;103196.06;;;0.93;100.00
60373;BME280;46216;52.220;5.134;2023-04-04T04:32:15;103190.78;;;0.91;100.00
60373;BME280;46216;52.220;5.134;2023-04-04T04:34:41;103186.41;;;0.87;100.00
60373;BME280;46216;52.220;5.134;2023-04-04T04:37:07;103184.63;;;0.83;100.00
60373;BME280;46216;52.220;5.134;2023-04-04T04:39:32;103194.25;;;0.81;100.00
60373;BME280;46216;52.220;5.134;2023-04-04T04:41:57;103190.72;;;0.76;100.00
60373;BME280;46216;52.220;5.134;2023-04-04T04:44:22;103195.94;;;0.75;100.00
60373;BME280;46216;52.220;5.134;2023-04-04T04:46:48;103195.97;;;0.73;100.00
60373;BME280;46216;52.220;5.134;2023-04-04T04:49:13;103202.97;;;0.73;100.00
60373;BME280;46216;52.220;5.134;2023-04-04T04:51:38;103204.66;;;0.67;100.00
60373;BME280;46216;52.220;5.134;2023-04-04T04:54:04;103212.53;;;0.66;100.00
60373;BME280;46216;52.220;5.134;2023-04-04T04:56:29;103209.00;;;0.64;100.00
60373;BME280;46216;52.220;5.134;2023-04-04T04:58:55;103205.53;;;0.62;100.00
60373;BME280;46216;52.220;5.134;2023-04-04T05:01:21;103214.22;;;0.61;100.00
60373;BME280;46216;52.220;5.134;2023-04-04T05:03:46;103214.25;;;0.59;100.00
60373;BME280;46216;52.220;5.134;2023-04-04T05:06:12;103201.13;;;0.59;100.00
60373;BME280;46216;52.220;5.134;2023-04-04T05:08:37;103202.88;;;0.59;100.00
60373;BME280;46216;52.220;5.134;2023-04-04T05:11:02;103188.84;;;0.55;100.00
60373;BME280;46216;52.220;5.134;2023-04-04T05:13:28;103201.09;;;0.58;100.00
60373;BME280;46216;52.220;5.134;2023-04-04T05:15:53;103208.13;;;0.59;100.00
60373;BME280;46216;52.220;5.134;2023-04-04T05:18:19;103209.91;;;0.61;100.00
60373;BME280;46216;52.220;5.134;2023-04-04T05:20:49;103218.63;;;0.63;100.00
60373;BME280;46216;52.220;5.134;2023-04-04T05:23:16;103218.66;;;0.66;100.00
60373;BME280;46216;52.220;5.134;2023-04-04T05:25:41;103225.66;;;0.67;100.00
60373;BME280;46216;52.220;5.134;2023-04-04T05:28:07;103219.53;;;0.67;100.00
60373;BME280;46216;52.220;5.134;2023-04-04T05:30:33;103209.91;;;0.66;100.00
60373;BME280;46216;52.220;5.134;2023-04-04T05:32:58;103217.78;;;0.66;100.00
60373;BME280;46216;52.220;5.134;2023-04-04T05:35:23;103215.16;;;0.66;100.00
60373;BME280;46216;52.220;5.134;2023-04-04T05:37:50;103212.53;;;0.66;100.00
60373;BME280;46216;52.220;5.134;2023-04-04T05:40:15;103220.41;;;0.66;100.00
60373;BME280;46216;52.220;5.134;2023-04-04T05:42:40;103212.53;;;0.66;100.00
60373;BME280;46216;52.220;5.134;2023-04-04T05:45:07;103218.69;;;0.69;100.00
60373;BME280;46216;52.220;5.134;2023-04-04T05:47:33;103207.28;;;0.67;100.00
60373;BME280;46216;52.220;5.134;2023-04-04T05:49:58;103217.84;;;0.72;100.00
60373;BME280;46216;52.220;5.134;2023-04-04T05:52:23;103216.97;;;0.73;100.00
60373;BME280;46216;52.220;5.134;2023-04-04T05:54:49;103216.97;;;0.76;100.00
60373;BME280;46216;52.220;5.134;2023-04-04T05:57:15;103212.63;;;0.78;100.00
60373;BME280;46216;52.220;5.134;2023-04-04T05:59:40;103217.91;;;0.83;100.00
60373;BME280;46216;52.220;5.134;2023-04-04T06:02:06;103217.91;;;0.87;100.00
60373;BME280;46216;52.220;5.134;2023-04-04T06:04:32;103217.94;;;0.90;100.00
60373;BME280;46216;52.220;5.134;2023-04-04T06:06:58;103213.59;;;0.96;100.00
60373;BME280;46216;52.220;5.134;2023-04-04T06:09:23;103212.75;;;1.00;100.00
60373;BME280;46216;52.220;5.134;2023-04-04T06:11:48;103211.88;;;1.04;100.00
60373;BME280;46216;52.220;5.134;2023-04-04T06:14:14;103215.41;;;1.12;100.00
60373;BME280;46216;52.220;5.134;2023-04-04T06:16:39;103218.06;;;1.18;100.00
60373;BME280;46216;52.220;5.134;2023-04-04T06:19:05;103211.13;;;1.26;100.00
60373;BME280;46216;52.220;5.134;2023-04-04T06:21:30;103210.25;;;1.32;100.00
60373;BME280;46216;52.220;5.134;2023-04-04T06:23:55;103195.38;;;1.38;100.00
60373;BME280;46216;52.220;5.134;2023-04-04T06:26:21;103198.94;;;1.47;100.00
60373;BME280;46216;52.220;5.134;2023-04-04T06:28:50;103198.06;;;1.54;100.00
60373;BME280;46216;52.220;5.134;2023-04-04T06:31:15;103205.97;;;1.63;100.00
60373;BME280;46216;52.220;5.134;2023-04-04T06:33:41;103211.25;;;1.75;100.00
60373;BME280;46216;52.220;5.134;2023-04-04T06:36:06;103211.28;;;1.86;100.00
60373;BME280;46216;52.220;5.134;2023-04-04T06:38:32;103220.06;;;1.96;100.00
60373;BME280;46216;52.220;5.134;2023-04-04T06:40:58;103224.47;;;2.06;100.00
60373;BME280;46216;52.220;5.134;2023-04-04T06:43:23;103223.59;;;2.16;100.00
60373;BME280;46216;52.220;5.134;2023-04-04T06:45:49;103215.69;;;2.24;100.00
60373;BME280;46216;52.220;5.134;2023-04-04T06:48:15;103215.72;;;2.34;100.00
60373;BME280;46216;52.220;5.134;2023-04-04T06:50:40;103211.31;;;2.49;100.00
60373;BME280;46216;52.220;5.134;2023-04-04T06:53:06;103208.66;;;2.58;100.00
60373;BME280;46216;52.220;5.134;2023-04-04T06:55:32;103211.28;;;2.67;100.00
60373;BME280;46216;52.220;5.134;2023-04-04T06:57:58;103206.88;;;2.78;100.00
60373;BME280;46216;52.220;5.134;2023-04-04T07:00:23;103207.75;;;2.93;100.00
60373;BME280;46216;52.220;5.134;2023-04-04T07:02:49;103211.19;;;3.04;100.00
60373;BME280;46216;52.220;5.134;2023-04-04T07:05:14;103218.22;;;3.10;100.00
60373;BME280;46216;52.220;5.134;2023-04-04T07:07:42;103205.00;;;3.17;100.00
60373;BME280;46216;52.220;5.134;2023-04-04T07:10:08;103219.03;;;3.24;100.00
60373;BME280;46216;52.220;5.134;2023-04-04T07:12:33;103218.97;;;3.36;100.00
60373;BME280;46216;52.220;5.134;2023-04-04T07:14:58;103212.78;;;3.46;100.00
60373;BME280;46216;52.220;5.134;2023-04-04T07:17:24;103210.09;;;3.59;100.00
60373;BME280;46216;52.220;5.134;2023-04-04T07:19:49;103213.53;;;3.70;100.00
60373;BME280;46216;52.220;5.134;2023-04-04T07:22:15;103199.44;;;3.75;100.00
60373;BME280;46216;52.220;5.134;2023-04-04T07:24:40;103199.38;;;3.85;100.00
60373;BME280;46216;52.220;5.134;2023-04-04T07:27:06;103197.59;;;3.91;100.00
60373;BME280;46216;52.220;5.134;2023-04-04T07:29:32;103201.03;;;4.01;100.00
60373;BME280;46216;52.220;5.134;2023-04-04T07:31:57;103192.22;;;4.05;100.00
60373;BME280;46216;52.220;5.134;2023-04-04T07:34:22;103193.84;;;4.17;100.00
60373;BME280;46216;52.220;5.134;2023-04-04T07:36:50;103197.34;;;4.25;100.00
60373;BME280;46216;52.220;5.134;2023-04-04T07:39:15;103199.91;;;4.33;100.00
60373;BME280;46216;52.220;5.134;2023-04-04T07:41:41;103192.75;;;4.44;100.00
60373;BME280;46216;52.220;5.134;2023-04-04T07:44:06;103196.22;;;4.52;100.00
60373;BME280;46216;52.220;5.134;2023-04-04T07:46:32;103187.31;;;4.62;100.00
60373;BME280;46216;52.220;5.134;2023-04-04T07:48:57;103192.44;;;4.74;100.00
60373;BME280;46216;52.220;5.134;2023-04-04T07:51:23;103192.31;;;4.87;100.00
60373;BME280;46216;52.220;5.134;2023-04-04T07:53:54;103194.00;;;4.94;100.00
60373;BME280;46216;52.220;5.134;2023-04-04T07:56:19;103176.28;;;5.02;100.00
60373;BME280;46216;52.220;5.134;2023-04-04T07:58:46;103179.72;;;5.10;100.00
60373;BME280;46216;52.220;5.134;2023-04-04T08:01:11;103177.81;;;5.21;100.00
60373;BME280;46216;52.220;5.134;2023-04-04T08:03:36;103171.53;;;5.29;100.00
60373;BME280;46216;52.220;5.134;2023-04-04T08:06:02;103172.25;;;5.40;100.00
60373;BME280;46216;52.220;5.134;2023-04-04T08:08:27;103165.13;;;5.48;100.00
60373;BME280;46216;52.220;5.134;2023-04-04T08:10:53;103170.28;;;5.57;100.00
60373;BME280;46216;52.220;5.134;2023-04-04T08:13:19;103163.88;;;5.70;100.00
60373;BME280;46216;52.220;5.134;2023-04-04T08:15:45;103174.41;;;5.75;100.00
60373;BME280;46216;52.220;5.134;2023-04-04T08:18:11;103160.19;;;5.82;100.00
60373;BME280;46216;52.220;5.134;2023-04-04T08:20:36;103168.91;;;5.89;100.00
60373;BME280;46216;52.220;5.134;2023-04-04T08:23:01;103160.94;;;5.92;100.00
60373;BME280;46216;52.220;5.134;2023-04-04T08:25:27;103154.72;;;5.96;100.00
60373;BME280;46216;52.220;5.134;2023-04-04T08:27:53;103159.78;;;6.10;100.00
60373;BME280;46216;52.220;5.134;2023-04-04T08:30:18;103155.94;;;6.28;100.00
60373;BME280;46216;52.220;5.134;2023-04-04T08:32:44;103155.81;;;6.35;100.00
60373;BME280;46216;52.220;5.134;2023-04-04T08:35:10;103155.84;;;6.34;100.00
60373;BME280;46216;52.220;5.134;2023-04-04T08:37:36;103149.47;;;6.44;100.00
60373;BME280;46216;52.220;5.134;2023-04-04T08:40:03;103143.34;;;6.42;100.00
60373;BME280;46216;52.220;5.134;2023-04-04T08:42:31;103142.06;;;6.61;100.00
60373;BME280;46216;52.220;5.134;2023-04-04T08:45:00;103130.38;;;6.73;100.00
60373;BME280;46216;52.220;5.134;2023-04-04T08:47:29;103137.06;;;6.91;100.00
60373;BME280;46216;52.220;5.134;2023-04-04T08:49:58;103123.75;;;6.94;100.00
60373;BME280;46216;52.220;5.134;2023-04-04T08:52:26;103148.25;;;7.05;100.00
60373;BME280;46216;52.220;5.134;2023-04-04T08:54:52;103142.78;;;7.15;100.00
60373;BME280;46216;52.220;5.134;2023-04-04T08:57:18;103150.44;;;7.28;100.00
60373;BME280;46216;52.220;5.134;2023-04-04T08:59:45;103143.28;;;7.32;100.00
60373;BME280;46216;52.220;5.134;2023-04-04T09:04:40;103140.44;;;7.41;100.00
60373;BME280;46216;52.220;5.134;2023-04-04T09:07:07;103139.31;;;7.51;100.00
60373;BME280;46216;52.220;5.134;2023-04-04T09:09:34;103145.31;;;7.59;100.00
60373;BME280;46216;52.220;5.134;2023-04-04T09:12:02;103146.91;;;7.67;100.00
60373;BME280;46216;52.220;5.134;2023-04-04T09:14:29;103148.50;;;7.74;99.50
60373;BME280;46216;52.220;5.134;2023-04-04T09:16:56;103149.22;;;7.80;99.20
60373;BME280;46216;52.220;5.134;2023-04-04T09:19:22;103151.72;;;7.88;99.44
60373;BME280;46216;52.220;5.134;2023-04-04T09:21:48;103152.59;;;7.87;99.54
60373;BME280;46216;52.220;5.134;2023-04-04T09:24:14;103151.47;;;7.97;97.60
60373;BME280;46216;52.220;5.134;2023-04-04T09:26:51;103149.63;;;8.01;96.19
60373;BME280;46216;52.220;5.134;2023-04-04T09:29:17;103149.53;;;8.05;97.12
60373;BME280;46216;52.220;5.134;2023-04-04T09:31:44;103138.81;;;8.09;98.03
60373;BME280;46216;52.220;5.134;2023-04-04T09:34:12;103145.88;;;8.08;96.46
60373;BME280;46216;52.220;5.134;2023-04-04T09:36:39;103147.41;;;8.18;97.45
60373;BME280;46216;52.220;5.134;2023-04-04T09:39:05;103142.94;;;8.20;96.69
60373;BME280;46216;52.220;5.134;2023-04-04T09:41:31;103146.19;;;8.32;97.19
60373;BME280;46216;52.220;5.134;2023-04-04T09:43:56;103144.31;;;8.35;95.69
60373;BME280;46216;52.220;5.134;2023-04-04T09:46:22;103139.72;;;8.42;96.30
60373;BME280;46216;52.220;5.134;2023-04-04T09:48:49;103135.09;;;8.50;97.04
60373;BME280;46216;52.220;5.134;2023-04-04T09:51:15;103120.59;;;8.62;96.78
60373;BME280;46216;52.220;5.134;2023-04-04T09:53:40;103120.09;;;8.80;97.42
60373;BME280;46216;52.220;5.134;2023-04-04T09:56:06;103116.25;;;8.90;96.40
60373;BME280;46216;52.220;5.134;2023-04-04T09:58:32;103121.00;;;9.09;97.19
60373;BME280;46216;52.220;5.134;2023-04-04T10:01:02;103110.72;;;9.26;96.78
60373;BME280;46216;52.220;5.134;2023-04-04T10:03:29;103120.69;;;9.47;97.03
60373;BME280;46216;52.220;5.134;2023-04-04T10:05:55;103111.72;;;9.52;92.86
60373;BME280;46216;52.220;5.134;2023-04-04T10:08:23;103113.56;;;9.76;94.20
60373;BME280;46216;52.220;5.134;2023-04-04T10:10:59;103110.63;;;9.85;92.28
60373;BME280;46216;52.220;5.134;2023-04-04T10:13:32;103115.38;;;10.02;92.77
60373;BME280;46216;52.220;5.134;2023-04-04T10:16:00;103112.94;;;10.21;91.89
60373;BME280;46216;52.220;5.134;2023-04-04T10:18:27;103111.91;;;10.25;90.36
60373;BME280;46216;52.220;5.134;2023-04-04T10:20:53;103113.00;;;10.46;88.29
60373;BME280;46216;52.220;5.134;2023-04-04T10:23:20;103104.06;;;10.47;87.90
60373;BME280;46216;52.220;5.134;2023-04-04T10:25:48;103096.31;;;10.64;88.46
60373;BME280;46216;52.220;5.134;2023-04-04T10:28:14;103104.97;;;10.71;86.26
60373;BME280;46216;52.220;5.134;2023-04-04T10:30:42;103095.16;;;10.95;87.50
60373;BME280;46216;52.220;5.134;2023-04-04T10:33:29;103095.69;;;11.05;86.69
60373;BME280;46216;52.220;5.134;2023-04-04T10:36:00;103100.91;;;11.08;83.78
60373;BME280;46216;52.220;5.134;2023-04-04T10:38:28;103091.50;;;11.21;84.59
60373;BME280;46216;52.220;5.134;2023-04-04T10:40:58;103084.50;;;11.17;80.94
60373;BME280;46216;52.220;5.134;2023-04-04T10:43:25;103089.88;;;11.39;82.18
60373;BME280;46216;52.220;5.134;2023-04-04T10:45:56;103083.13;;;11.52;81.45
60373;BME280;46216;52.220;5.134;2023-04-04T10:48:24;103080.16;;;11.80;82.44
60373;BME280;46216;52.220;5.134;2023-04-04T10:50:50;103081.28;;;11.75;78.10
60373;BME280;46216;52.220;5.134;2023-04-04T10:53:16;103076.56;;;11.81;79.10
60373;BME280;46216;52.220;5.134;2023-04-04T10:55:42;103080.00;;;12.05;80.78
60373;BME280;46216;52.220;5.134;2023-04-04T10:58:10;103066.50;;;12.29;81.19
60373;BME280;46216;52.220;5.134;2023-04-04T11:00:48;103063.81;;;12.49;78.72
60373;BME280;46216;52.220;5.134;2023-04-04T11:03:13;103071.06;;;12.66;79.87
60373;BME280;46216;52.220;5.134;2023-04-04T11:05:39;103060.22;;;12.69;77.71
60373;BME280;46216;52.220;5.134;2023-04-04T11:08:14;103053.38;;;13.01;76.76
60373;BME280;46216;52.220;5.134;2023-04-04T11:10:43;103055.03;;;13.04;74.95
60373;BME280;46216;52.220;5.134;2023-04-04T11:13:18;103057.06;;;12.99;72.45
60373;BME280;46216;52.220;5.134;2023-04-04T11:18:22;103048.00;;;13.20;71.94
60373;BME280;46216;52.220;5.134;2023-04-04T11:21:09;103040.06;;;13.55;72.37
60373;BME280;46216;52.220;5.134;2023-04-04T11:29:03;103038.34;;;13.54;68.77
60373;BME280;46216;52.220;5.134;2023-04-04T11:31:31;103037.63;;;13.68;69.75
60373;BME280;46216;52.220;5.134;2023-04-04T11:39:22;103019.41;;;14.09;65.41
60373;BME280;46216;52.220;5.134;2023-04-04T11:44:15;103028.09;;;14.14;65.95
60373;BME280;46216;52.220;5.134;2023-04-04T11:46:42;103028.69;;;14.37;64.99
60373;BME280;46216;52.220;5.134;2023-04-04T11:49:09;103013.69;;;14.33;64.17
60373;BME280;46216;52.220;5.134;2023-04-04T11:51:36;103021.56;;;14.36;62.06
60373;BME280;46216;52.220;5.134;2023-04-04T11:54:03;103012.38;;;14.24;59.86
60373;BME280;46216;52.220;5.134;2023-04-04T11:56:32;103010.97;;;14.50;59.44
60373;BME280;46216;52.220;5.134;2023-04-04T11:59:02;103002.75;;;14.53;56.09
60373;BME280;46216;52.220;5.134;2023-04-04T12:01:28;103011.00;;;14.33;55.79
60373;BME280;46216;52.220;5.134;2023-04-04T12:03:54;103010.13;;;14.16;55.38
60373;BME280;46216;52.220;5.134;2023-04-04T12:06:19;103007.72;;;14.28;57.45
60373;BME280;46216;52.220;5.134;2023-04-04T12:08:45;103002.25;;;13.96;54.34
60373;BME280;46216;52.220;5.134;2023-04-04T12:11:14;103001.47;;;14.27;58.34
60373;BME280;46216;52.220;5.134;2023-04-04T12:13:42;102998.38;;;14.35;56.24
60373;BME280;46216;52.220;5.134;2023-04-04T12:16:12;102985.31;;;14.62;57.15
60373;BME280;46216;52.220;5.134;2023-04-04T12:18:37;102982.28;;;14.35;53.83
60373;BME280;46216;52.220;5.134;2023-04-04T12:21:05;102984.00;;;14.36;53.38
60373;BME280;46216;52.220;5.134;2023-04-04T12:23:34;102970.31;;;14.25;52.89
60373;BME280;46216;52.220;5.134;2023-04-04T12:26:01;102962.53;;;14.36;54.38
60373;BME280;46216;52.220;5.134;2023-04-04T12:28:29;102961.31;;;14.75;55.48
60373;BME280;46216;52.220;5.134;2023-04-04T12:30:55;102964.84;;;14.91;53.77
60373;BME280;46216;52.220;5.134;2023-04-04T12:33:21;102965.81;;;15.06;52.63
60373;BME280;46216;52.220;5.134;2023-04-04T12:35:51;102962.16;;;14.91;48.67
60373;BME280;46216;52.220;5.134;2023-04-04T12:38:16;102962.94;;;14.93;51.14
60373;BME280;46216;52.220;5.134;2023-04-04T12:40:43;102954.66;;;14.82;50.01
60373;BME280;46216;52.220;5.134;2023-04-04T12:43:15;102953.75;;;14.97;48.29
60373;BME280;46216;52.220;5.134;2023-04-04T12:45:42;102937.69;;;14.81;47.72
60373;BME280;46216;52.220;5.134;2023-04-04T12:48:13;102959.66;;;15.04;46.66
60373;BME280;46216;52.220;5.134;2023-04-04T12:50:56;102960.34;;;15.07;46.16
60373;BME280;46216;52.220;5.134;2023-04-04T12:53:26;102950.19;;;15.12;44.29
60373;BME280;46216;52.220;5.134;2023-04-04T12:55:52;102947.38;;;15.30;42.87
60373;BME280;46216;52.220;5.134;2023-04-04T12:58:20;102938.03;;;15.21;43.14
60373;BME280;46216;52.220;5.134;2023-04-04T13:00:47;102943.88;;;15.13;44.92
60373;BME280;46216;52.220;5.134;2023-04-04T13:03:15;102933.31;;;15.10;44.68
60373;BME280;46216;52.220;5.134;2023-04-04T13:05:42;102933.00;;;15.31;46.69